Time;durP1;ratioP1;P1;durP2;ratioP2;P2;SDS_P1;SDS_P2;PMS_P1;PMS_P2;Temp;Humidity;BMP_temperature;BMP_pressure;BME280_temperature;BME280_humidity;BME280_pressure;Samples;Min_cycle;Max_cycle;Signal;HPM_P1;HPM_P2
2021/04/08 06:02:11;;;;;;;;;;;;;;;;;;5127514;23;1694;-70
2021/04/08 06:04:37;;;;;;;;;;;;;;;;;;4959565;28;849;-70
2021/04/08 06:07:02;;;;;;;;;;;;;;;;;;4957545;28;940;-70
2021/04/08 06:09:27;;;;;;;;;;;;;;;;;;4957637;28;912;-70
2021/04/08 06:11:53;;;;;;;;;;;;;;;;;;4957563;28;1402;-70
2021/04/08 06:14:18;;;;;;;;;;;;;;;;;;4957103;28;797;-70
2021/04/08 06:16:43;;;;;;;;;;;;;;;;;;4957316;29;1910;-70
2021/04/08 06:19:09;;;;;;;;;;;;;;;;;;4956105;29;1443;-70
2021/04/08 06:21:37;;;;;;;;;;;;;;;;;;4957365;29;1398;-70
2021/04/08 06:24:02;;;;;;;;;;;;;;;;;;4956385;29;948;-70
2021/04/08 06:26:28;;;;;;;;;;;;;;;;;;4956981;29;936;-69
2021/04/08 06:28:53;;;;;;;;;;;;;;;;;;4956936;29;849;-69
2021/04/08 06:31:18;;;;;;;;;;;;;;;;;;4956338;29;1501;-70
2021/04/08 06:33:44;;;;;;;;;;;;;;;;;;4957033;29;921;-70
2021/04/08 06:36:10;;;;;;;;;;;;;;;;;;4957003;29;1870;-70
2021/04/08 06:38:35;;;;;;;;;;;;;;;;;;4955755;29;1294;-69
2021/04/08 06:41:00;;;;;;;;;;;;;;;;;;4956984;28;1267;-70
2021/04/08 06:43:26;;;;;;;;;;;;;;;;;;4956520;29;924;-70
2021/04/08 06:45:52;;;;;;;;;;;;;;;;;;4957065;28;916;-69
2021/04/08 06:48:23;;;;;;;;;;;;;;;;;;4956924;29;798;-70
2021/04/08 06:50:50;;;;;;;;;;;;;;;;;;4956895;28;1271;-70
2021/04/08 06:53:15;;;;;;;;;;;;;;;;;;4956085;28;802;-70
2021/04/08 06:55:41;;;;;;;;;;;;;;;;;;4955552;29;995;-70
2021/04/08 06:58:07;;;;;;;;;;;;;;;;;;4955401;29;1902;-69
2021/04/08 07:00:32;;;;;;;;;;;;;;;;;;4956643;29;1275;-69
2021/04/08 07:02:58;;;;;;;;;;;;;;;;;;4955429;29;1316;-69
2021/04/08 07:05:24;;;;;;;;;;;;;;;;;;4955126;29;1186;-69
2021/04/08 07:07:49;;;;;;;;;;;;;;;;;;4956326;29;806;-68
2021/04/08 07:10:14;;;;;;;;;;;;;;;;;;4956402;28;1378;-69
2021/04/08 07:12:40;;;;;;;;;;;;;;;;;;4956522;29;865;-69
2021/04/08 07:15:06;;;;;;;;;;;;;;;;;;4955066;29;1117;-70
2021/04/08 07:17:31;;;;;;;;;;;;;;;;;;4956496;29;1952;-69
2021/04/08 07:19:57;;;;;;;;;;;;;;;;;;4956379;29;850;-70
2021/04/08 07:22:25;;;;;;;;;;;;;;;;;;4956407;29;1335;-70
2021/04/08 07:24:50;;;;;;;;;;;;;;;;;;4956247;29;920;-69
2021/04/08 07:27:19;;;;;;;;;;;;;;;;;;4956576;28;1522;-69
2021/04/08 07:29:48;;;;;;;;;;;;;;;;;;4955193;29;1445;-69
2021/04/08 07:32:21;;;;;;;;;;;;;;;;;;4956310;29;1351;-69
2021/04/08 07:34:48;;;;;;;;;;;;;;;;;;4954722;29;1217;-70
2021/04/08 07:37:14;;;;;;;;;;;;;;;;;;4956353;29;1957;-69
2021/04/08 07:39:44;;;;;;;;;;;;;;;;;;4956273;29;976;-69
2021/04/08 07:42:14;;;;;;;;;;;;;;;;;;4956245;29;1405;-69
2021/04/08 07:44:43;;;;;;;;;;;;;;;;;;4955941;29;803;-70
2021/04/08 07:47:15;;;;;;;;;;;;;;;;;;4956297;29;924;-69
2021/04/08 07:49:41;;;;;;;;;;;;;;;;;;4956151;29;924;-68
2021/04/08 07:52:15;;;;;;;;;;;;;;;;;;4954886;29;1422;-68
2021/04/08 07:54:54;;;;;;;;;;;;;;;;;;4956100;29;813;-69
2021/04/08 07:57:19;;;;;;;;;;;;;;;;;;4955903;29;1898;-69
2021/04/08 07:59:45;;;;;;;;;;;;;;;;;;4956156;29;952;-69
2021/04/08 08:02:10;;;;;;;;;;;;;;;;;;4954682;29;1386;-69
2021/04/08 08:04:35;;;;;;;;;;;;;;;;;;4954962;28;1007;-69
2021/04/08 08:07:00;;;;;;;;;;;;;;;;;;4958956;29;983;-68
2021/04/08 08:09:30;;;;;;;;;;;;;;;;;;4959568;29;864;-68
2021/04/08 08:11:57;;;;;;;;;;;;;;;;;;4958426;29;1364;-69
2021/04/08 08:14:35;;;;;;;;;;;;;;;;;;4959469;29;798;-69
2021/04/08 08:17:02;;;;;;;;;;;;;;;;;;4958166;29;1899;-69
2021/04/08 08:19:28;;;;;;;;;;;;;;;;;;4958239;29;1217;-69
2021/04/08 08:21:53;;;;;;;;;;;;;;;;;;4959457;29;1410;-69
2021/04/08 08:24:19;;;;;;;;;;;;;;;;;;4959264;29;899;-70
2021/04/08 08:26:45;;;;;;;;;;;;;;;;;;4957930;29;1429;-69
2021/04/08 08:29:10;;;;;;;;;;;;;;;;;;4958004;29;1345;-69
2021/04/08 08:31:49;;;;;;;;;;;;;;;;;;4959293;29;1284;-69
2021/04/08 08:34:20;;;;;;;;;;;;;;;;;;4959124;29;838;-68
2021/04/08 08:36:49;;;;;;;;;;;;;;;;;;4957892;29;1903;-69
2021/04/08 08:39:16;;;;;;;;;;;;;;;;;;4957823;29;1620;-69
2021/04/08 08:41:42;;;;;;;;;;;;;;;;;;4958059;28;1427;-68
2021/04/08 08:44:09;;;;;;;;;;;;;;;;;;4959038;29;906;-69
2021/04/08 08:46:46;;;;;;;;;;;;;;;;;;4957819;29;1206;-69
2021/04/08 08:49:12;;;;;;;;;;;;;;;;;;4957668;29;1394;-69
2021/04/08 08:51:38;;;;;;;;;;;;;;;;;;4957609;29;1363;-69
2021/04/08 08:54:03;;;;;;;;;;;;;;;;;;4957442;29;1233;-70
2021/04/08 08:56:30;;;;;;;;;;;;;;;;;;4958947;29;1942;-70
2021/04/08 08:58:56;;;;;;;;;;;;;;;;;;4958898;29;782;-70
2021/04/08 09:01:21;;;;;;;;;;;;;;;;;;4958683;29;1382;-70
2021/04/08 09:03:51;;;;;;;;;;;;;;;;;;4957122;29;1204;-71
2021/04/08 09:06:20;;;;;;;;;;;;;;;;;;4958768;29;916;-69
2021/04/08 09:08:51;;;;;;;;;;;;;;;;;;4958603;28;818;-70
2021/04/08 09:11:29;;;;;;;;;;;;;;;;;;4958633;29;1391;-70
2021/04/08 09:13:55;;;;;;;;;;;;;;;;;;4958411;29;853;-70
2021/04/08 09:16:21;;;;;;;;;;;;;;;;;;4957057;28;1890;-70
2021/04/08 09:18:59;;;;;;;;;;;;;;;;;;4958255;29;1111;-70
2021/04/08 09:21:25;;;;;;;;;;;;;;;;;;4957213;29;1485;-69
2021/04/08 09:24:09;;;;;;;;;;;;;;;;;;4958175;29;814;-70
2021/04/08 09:26:38;;;;;;;;;;;;;;;;;;4958382;28;925;-69
2021/04/08 09:29:04;;;;;;;;;;;;;;;;;;4958579;29;959;-70
2021/04/08 09:31:30;;;;;;;;;;;;;;;;;;4957981;29;1421;-70
2021/04/08 09:33:56;;;;;;;;;;;;;;;;;;4956783;29;1390;-70
2021/04/08 09:36:21;;;;;;;;;;;;;;;;;;4956891;29;1914;-70
2021/04/08 09:38:48;;;;;;;;;;;;;;;;;;4956846;29;1225;-70
2021/04/08 09:41:13;;;;;;;;;;;;;;;;;;4956571;29;1407;-70
2021/04/08 09:43:39;;;;;;;;;;;;;;;;;;4958096;29;944;-70
2021/04/08 09:46:09;;;;;;;;;;;;;;;;;;4958014;29;814;-70
2021/04/08 09:48:45;;;;;;;;;;;;;;;;;;4958067;29;849;-70
2021/04/08 09:51:23;;;;;;;;;;;;;;;;;;4957646;29;1409;-71
2021/04/08 09:53:54;;;;;;;;;;;;;;;;;;4957590;29;837;-70
2021/04/08 09:56:38;;;;;;;;;;;;;;;;;;4957783;29;1948;-70
2021/04/08 09:59:03;;;;;;;;;;;;;;;;;;4957755;29;991;-71
2021/04/08 10:01:28;;;;;;;;;;;;;;;;;;4957563;29;1394;-70
2021/04/08 10:03:53;;;;;;;;;;;;;;;;;;4957509;29;968;-71
2021/04/08 10:06:20;;;;;;;;;;;;;;;;;;4956272;29;1361;-70
2021/04/08 10:08:46;;;;;;;;;;;;;;;;;;4940684;29;1251;-70
2021/04/08 10:11:31;;;;;;;;;;;;;;;;;;4957133;28;1287;-70
2021/04/08 10:13:56;;;;;;;;;;;;;;;;;;4956146;29;905;-71
2021/04/08 10:16:21;;;;;;;;;;;;;;;;;;4957354;29;1898;-70
2021/04/08 10:18:57;;;;;;;;;;;;;;;;;;4957312;29;913;-71
2021/04/08 10:21:22;;;;;;;;;;;;;;;;;;4957012;29;1294;-69
2021/04/08 10:23:49;;;;;;;;;;;;;;;;;;4957013;29;880;-71
2021/04/08 10:26:16;;;;;;;;;;;;;;;;;;4957204;29;849;-70
2021/04/08 10:28:46;;;;;;;;;;;;;;;;;;4955328;28;1329;-70
2021/04/08 10:31:17;;;;;;;;;;;;;;;;;;4957038;29;1299;-68
2021/04/08 10:33:43;;;;;;;;;;;;;;;;;;4956917;29;846;-70
2021/04/08 10:36:08;;;;;;;;;;;;;;;;;;4956784;28;1895;-70
2021/04/08 10:38:34;;;;;;;;;;;;;;;;;;4955824;29;2045;-69
2021/04/08 10:41:00;;;;;;;;;;;;;;;;;;4957006;29;1303;-69
2021/04/08 10:43:26;;;;;;;;;;;;;;;;;;4955553;29;1348;-69
2021/04/08 10:45:52;;;;;;;;;;;;;;;;;;4956824;29;968;-68
2021/04/08 10:48:18;;;;;;;;;;;;;;;;;;4956932;29;873;-70
2021/04/08 10:50:43;;;;;;;;;;;;;;;;;;4955506;29;1327;-69
2021/04/08 10:53:09;;;;;;;;;;;;;;;;;;4955374;29;1178;-70
2021/04/08 10:55:34;;;;;;;;;;;;;;;;;;4956851;29;909;-71
2021/04/08 10:57:59;;;;;;;;;;;;;;;;;;4956693;29;1891;-68
2021/04/08 11:00:25;;;;;;;;;;;;;;;;;;4956437;29;1381;-70
2021/04/08 11:02:50;;;;;;;;;;;;;;;;;;4956663;29;1218;-70
2021/04/08 11:05:17;;;;;;;;;;;;;;;;;;4955203;29;2575;-68
2021/04/08 11:07:46;;;;;;;;;;;;;;;;;;4956628;29;972;-70
2021/04/08 11:10:12;;;;;;;;;;;;;;;;;;4955284;29;1505;-69
2021/04/08 11:12:38;;;;;;;;;;;;;;;;;;4956552;29;904;-68
2021/04/08 11:15:04;;;;;;;;;;;;;;;;;;4954871;29;1200;-70
2021/04/08 11:17:30;;;;;;;;;;;;;;;;;;4956466;29;1891;-71
2021/04/08 11:19:56;;;;;;;;;;;;;;;;;;4956448;29;890;-69
2021/04/08 11:22:24;;;;;;;;;;;;;;;;;;4955212;29;1726;-69
2021/04/08 11:24:50;;;;;;;;;;;;;;;;;;4956321;29;944;-71
2021/04/08 11:27:24;;;;;;;;;;;;;;;;;;4954978;29;1202;-70
2021/04/08 11:29:50;;;;;;;;;;;;;;;;;;4956543;29;830;-70
2021/04/08 11:32:16;;;;;;;;;;;;;;;;;;4956255;29;1438;-72
2021/04/08 11:34:42;;;;;;;;;;;;;;;;;;4954838;29;917;-70
2021/04/08 11:37:07;;;;;;;;;;;;;;;;;;4956304;29;1958;-71
2021/04/08 11:39:33;;;;;;;;;;;;;;;;;;4956711;28;870;-69
2021/04/08 11:42:12;;;;;;;;;;;;;;;;;;4960221;29;1303;-71
2021/04/08 11:44:37;;;;;;;;;;;;;;;;;;4959977;29;1067;-69
2021/04/08 11:47:09;;;;;;;;;;;;;;;;;;4958767;29;1341;-69
2021/04/08 11:49:41;;;;;;;;;;;;;;;;;;4959876;28;979;-69
2021/04/08 11:52:11;;;;;;;;;;;;;;;;;;4958907;29;1430;-72
2021/04/08 11:54:55;;;;;;;;;;;;;;;;;;4959810;28;810;-70
2021/04/08 11:57:20;;;;;;;;;;;;;;;;;;4959822;29;1899;-71
2021/04/08 11:59:45;;;;;;;;;;;;;;;;;;4959868;29;960;-70
2021/04/08 12:02:10;;;;;;;;;;;;;;;;;;4958494;29;1327;-70
2021/04/08 12:04:47;;;;;;;;;;;;;;;;;;4959828;29;905;-70
2021/04/08 12:07:12;;;;;;;;;;;;;;;;;;4959808;28;1015;-69
2021/04/08 12:09:44;;;;;;;;;;;;;;;;;;4958739;29;1115;-69
2021/04/08 12:12:09;;;;;;;;;;;;;;;;;;4959616;28;1497;-69
2021/04/08 12:14:53;;;;;;;;;;;;;;;;;;4959234;29;1153;-70
2021/04/08 12:17:18;;;;;;;;;;;;;;;;;;4958326;29;1970;-70
2021/04/08 12:19:44;;;;;;;;;;;;;;;;;;4958200;29;1210;-69
2021/04/08 12:22:10;;;;;;;;;;;;;;;;;;4958383;29;1343;-71
2021/04/08 12:24:36;;;;;;;;;;;;;;;;;;4957939;29;1565;-68
2021/04/08 12:27:01;;;;;;;;;;;;;;;;;;4965200;28;1763;-70
2021/04/08 12:29:26;;;;;;;;;;;;;;;;;;4967037;28;1336;-71
2021/04/08 12:31:53;;;;;;;;;;;;;;;;;;4967802;28;1441;-71
2021/04/08 12:34:19;;;;;;;;;;;;;;;;;;4965481;28;1493;-70
2021/04/08 12:36:44;;;;;;;;;;;;;;;;;;4967321;28;1948;-71
2021/04/08 12:39:10;;;;;;;;;;;;;;;;;;4964888;28;1762;-69
2021/04/08 12:41:36;;;;;;;;;;;;;;;;;;4950214;28;1650;-70
2021/04/08 12:44:01;;;;;;;;;;;;;;;;;;4967180;28;1228;-70
2021/04/08 12:46:27;;;;;;;;;;;;;;;;;;4966561;28;1436;-69
2021/04/08 12:48:52;;;;;;;;;;;;;;;;;;4966316;28;1554;-71
2021/04/08 12:51:18;;;;;;;;;;;;;;;;;;4966009;28;1417;-69
2021/04/08 12:53:43;;;;;;;;;;;;;;;;;;4966129;28;1358;-69
2021/04/08 12:56:09;;;;;;;;;;;;;;;;;;4966812;28;1342;-70
2021/04/08 12:58:34;;;;;;;;;;;;;;;;;;4972087;28;1985;-70
2021/04/08 13:00:59;;;;;;;;;;;;;;;;;;4967090;28;1610;-70
2021/04/08 13:03:24;;;;;;;;;;;;;;;;;;4973643;28;1436;-69
2021/04/08 13:05:50;;;;;;;;;;;;;;;;;;4976607;28;1460;-69
2021/04/08 13:08:15;;;;;;;;;;;;;;;;;;4978015;28;821;-70
2021/04/08 13:10:41;;;;;;;;;;;;;;;;;;4977750;28;1354;-70
2021/04/08 13:13:07;;;;;;;;;;;;;;;;;;4976146;28;889;-69
2021/04/08 13:15:34;;;;;;;;;;;;;;;;;;4976510;28;1317;-70
2021/04/08 13:18:01;;;;;;;;;;;;;;;;;;4977416;28;1895;-69
2021/04/08 13:20:27;;;;;;;;;;;;;;;;;;4976539;28;1665;-69
2021/04/08 13:22:52;;;;;;;;;;;;;;;;;;4977621;28;927;-70
2021/04/08 13:25:18;;;;;;;;;;;;;;;;;;4977729;28;826;-68
2021/04/08 13:27:43;;;;;;;;;;;;;;;;;;4976252;28;1404;-69
2021/04/08 13:30:10;;;;;;;;;;;;;;;;;;4976704;28;1280;-68
2021/04/08 13:32:36;;;;;;;;;;;;;;;;;;4976257;28;1246;-69
2021/04/08 13:35:02;;;;;;;;;;;;;;;;;;4976101;28;1386;-68
2021/04/08 13:37:27;;;;;;;;;;;;;;;;;;4977388;28;1955;-69
2021/04/08 13:39:52;;;;;;;;;;;;;;;;;;4977406;28;928;-69
2021/04/08 13:42:18;;;;;;;;;;;;;;;;;;4977285;28;1350;-69
2021/04/08 13:44:43;;;;;;;;;;;;;;;;;;4977321;28;900;-69
2021/04/08 13:47:08;;;;;;;;;;;;;;;;;;4977264;28;888;-69
2021/04/08 13:49:33;;;;;;;;;;;;;;;;;;4977038;28;896;-69
2021/04/08 13:51:59;;;;;;;;;;;;;;;;;;4977141;28;1381;-68
2021/04/08 13:54:24;;;;;;;;;;;;;;;;;;4977037;28;981;-69
2021/04/08 13:56:50;;;;;;;;;;;;;;;;;;4977001;28;1882;-69
2021/04/08 13:59:15;;;;;;;;;;;;;;;;;;4976109;28;1365;-68
2021/04/08 14:01:40;;;;;;;;;;;;;;;;;;4975628;28;1442;-71
2021/04/08 14:04:06;;;;;;;;;;;;;;;;;;4974559;28;2282;-68
2021/04/08 14:06:32;;;;;;;;;;;;;;;;;;4975525;28;893;-69
2021/04/08 14:08:57;;;;;;;;;;;;;;;;;;4976890;28;812;-68
2021/04/08 14:11:22;;;;;;;;;;;;;;;;;;4977014;28;1314;-69
2021/04/08 14:13:48;;;;;;;;;;;;;;;;;;4976679;28;845;-68
2021/04/08 14:16:13;;;;;;;;;;;;;;;;;;4976804;28;963;-68
2021/04/08 14:18:38;;;;;;;;;;;;;;;;;;4976481;28;2002;-68
2021/04/08 14:21:04;;;;;;;;;;;;;;;;;;4976788;28;1361;-68
2021/04/08 14:23:29;;;;;;;;;;;;;;;;;;4976634;28;956;-68
2021/04/08 14:26:09;;;;;;;;;;;;;;;;;;5091856;27;1343;-68
2021/04/08 14:28:34;;;;;;;;;;;;;;;;;;5090639;28;1331;-68
2021/04/08 14:30:59;;;;;;;;;;;;;;;;;;5090804;28;1473;-68
2021/04/08 14:33:25;;;;;;;;;;;;;;;;;;5090603;28;868;-68
2021/04/08 14:35:50;;;;;;;;;;;;;;;;;;5091855;28;856;-68
2021/04/08 14:38:16;;;;;;;;;;;;;;;;;;5090148;28;1401;-67
2021/04/08 14:40:42;;;;;;;;;;;;;;;;;;5091752;28;1440;-68
2021/04/08 14:43:07;;;;;;;;;;;;;;;;;;5091476;28;848;-67
2021/04/08 14:45:33;;;;;;;;;;;;;;;;;;5090172;28;1905;-67
2021/04/08 14:47:59;;;;;;;;;;;;;;;;;;5091513;28;864;-67
2021/04/08 14:50:25;;;;;;;;;;;;;;;;;;5091490;28;1432;-67
2021/04/08 14:52:50;;;;;;;;;;;;;;;;;;5091581;28;912;-67
2021/04/08 14:55:15;;;;;;;;;;;;;;;;;;5091255;28;836;-67
2021/04/08 14:57:41;;;;;;;;;;;;;;;;;;5091577;28;986;-67
2021/04/08 15:00:07;;;;;;;;;;;;;;;;;;5089857;28;1456;-67
2021/04/08 15:02:32;;;;;;;;;;;;;;;;;;5091064;28;927;-67
2021/04/08 15:04:58;;;;;;;;;;;;;;;;;;5091105;28;2004;-67
2021/04/08 15:07:23;;;;;;;;;;;;;;;;;;5090090;28;1210;-67
2021/04/08 15:09:48;;;;;;;;;;;;;;;;;;5091064;28;908;-67
2021/04/08 15:12:14;;;;;;;;;;;;;;;;;;5091109;28;1434;-67
2021/04/08 15:14:40;;;;;;;;;;;;;;;;;;5091154;28;855;-67
2021/04/08 15:17:05;;;;;;;;;;;;;;;;;;5089868;28;1305;-67
2021/04/08 15:19:30;;;;;;;;;;;;;;;;;;5090943;28;852;-67
2021/04/08 15:21:56;;;;;;;;;;;;;;;;;;5090907;28;1400;-67
2021/04/08 15:24:21;;;;;;;;;;;;;;;;;;5089203;28;1918;-67
2021/04/08 15:26:48;;;;;;;;;;;;;;;;;;5089429;28;1548;-67
2021/04/08 15:29:14;;;;;;;;;;;;;;;;;;5090437;28;824;-67
2021/04/08 15:31:39;;;;;;;;;;;;;;;;;;5089553;28;1440;-67
2021/04/08 15:34:04;;;;;;;;;;;;;;;;;;5087846;28;1204;-66
2021/04/08 15:36:32;;;;;;;;;;;;;;;;;;5074616;28;1545;-67
2021/04/08 15:38:57;;;;;;;;;;;;;;;;;;5073997;28;1503;-67
2021/04/08 15:41:22;;;;;;;;;;;;;;;;;;5075670;28;1585;-67
2021/04/08 15:43:47;;;;;;;;;;;;;;;;;;5076401;28;1997;-67
2021/04/08 15:46:13;;;;;;;;;;;;;;;;;;5075702;28;1359;-67
2021/04/08 15:48:38;;;;;;;;;;;;;;;;;;5059581;28;848;-67
2021/04/08 15:51:06;;;;;;;;;;;;;;;;;;5076857;28;1452;-67
2021/04/08 15:53:31;;;;;;;;;;;;;;;;;;5075857;28;1350;-67
2021/04/08 15:55:57;;;;;;;;;;;;;;;;;;5075192;28;1406;-67
2021/04/08 15:58:22;;;;;;;;;;;;;;;;;;5076909;28;792;-67
2021/04/08 16:00:47;;;;;;;;;;;;;;;;;;5076673;28;1341;-67
2021/04/08 16:03:12;;;;;;;;;;;;;;;;;;5071261;28;1594;-67
2021/04/08 16:05:38;;;;;;;;;;;;;;;;;;5076380;28;1886;-67
2021/04/08 16:08:03;;;;;;;;;;;;;;;;;;5068283;28;1870;-67
2021/04/08 16:10:28;;;;;;;;;;;;;;;;;;5068552;28;1521;-66
2021/04/08 16:12:53;;;;;;;;;;;;;;;;;;5071197;28;1721;-66
2021/04/08 16:15:19;;;;;;;;;;;;;;;;;;5069048;28;2275;-66
2021/04/08 16:17:44;;;;;;;;;;;;;;;;;;5067011;28;1517;-67
2021/04/08 16:20:10;;;;;;;;;;;;;;;;;;5075026;28;1325;-67
2021/04/08 16:22:36;;;;;;;;;;;;;;;;;;5076385;28;861;-67
2021/04/08 16:25:01;;;;;;;;;;;;;;;;;;5087980;28;1963;-67
2021/04/08 16:27:29;;;;;;;;;;;;;;;;;;5095300;28;1905;-67
2021/04/08 16:29:54;;;;;;;;;;;;;;;;;;5095180;28;899;-68
2021/04/08 16:32:19;;;;;;;;;;;;;;;;;;5095147;28;1483;-67
2021/04/08 16:34:45;;;;;;;;;;;;;;;;;;5096400;28;1374;-67
2021/04/08 16:37:10;;;;;;;;;;;;;;;;;;5096590;28;868;-68
2021/04/08 16:39:35;;;;;;;;;;;;;;;;;;5094821;28;1522;-68
2021/04/08 16:42:01;;;;;;;;;;;;;;;;;;5096224;28;1337;-67
2021/04/08 16:44:26;;;;;;;;;;;;;;;;;;5094705;28;1898;-67
2021/04/08 16:46:52;;;;;;;;;;;;;;;;;;5096111;28;855;-67
2021/04/08 16:49:17;;;;;;;;;;;;;;;;;;5092484;28;1927;-67
2021/04/08 16:51:42;;;;;;;;;;;;;;;;;;5091926;28;1597;-67
2021/04/08 16:54:08;;;;;;;;;;;;;;;;;;5092339;28;1632;-67
2021/04/08 16:56:34;;;;;;;;;;;;;;;;;;5093727;28;1594;-67
2021/04/08 16:59:00;;;;;;;;;;;;;;;;;;5091597;28;1551;-67
2021/04/08 17:01:25;;;;;;;;;;;;;;;;;;5082018;28;1763;-67
2021/04/08 17:03:50;;;;;;;;;;;;;;;;;;5090974;28;1890;-67
2021/04/08 17:06:16;;;;;;;;;;;;;;;;;;5096151;28;857;-67
2021/04/08 17:08:41;;;;;;;;;;;;;;;;;;5094832;28;1128;-67
2021/04/08 17:11:06;;;;;;;;;;;;;;;;;;5094653;28;1694;-67
2021/04/08 17:13:31;;;;;;;;;;;;;;;;;;5086263;28;1668;-67
2021/04/08 17:15:58;;;;;;;;;;;;;;;;;;5094503;28;1120;-67
2021/04/08 17:18:23;;;;;;;;;;;;;;;;;;5094514;28;1322;-67
2021/04/08 17:20:48;;;;;;;;;;;;;;;;;;5094551;28;1443;-67
2021/04/08 17:23:14;;;;;;;;;;;;;;;;;;5093951;28;915;-67
2021/04/08 17:25:39;;;;;;;;;;;;;;;;;;5095289;28;1953;-67
2021/04/08 17:28:05;;;;;;;;;;;;;;;;;;5095555;28;907;-67
2021/04/08 17:30:30;;;;;;;;;;;;;;;;;;5094132;28;1396;-67
2021/04/08 17:32:56;;;;;;;;;;;;;;;;;;5095763;28;928;-67
2021/04/08 17:35:22;;;;;;;;;;;;;;;;;;5095189;28;847;-67
2021/04/08 17:37:47;;;;;;;;;;;;;;;;;;5095106;28;873;-69
2021/04/08 17:40:13;;;;;;;;;;;;;;;;;;5093977;28;1527;-67
2021/04/08 17:42:40;;;;;;;;;;;;;;;;;;5095404;28;931;-67
2021/04/08 17:45:06;;;;;;;;;;;;;;;;;;5094892;28;1893;-69
2021/04/08 17:47:32;;;;;;;;;;;;;;;;;;5094876;28;828;-69
2021/04/08 17:49:57;;;;;;;;;;;;;;;;;;5095251;28;820;-69
2021/04/08 17:52:23;;;;;;;;;;;;;;;;;;5094977;28;1424;-67
2021/04/08 17:54:48;;;;;;;;;;;;;;;;;;5094801;28;863;-67
2021/04/08 17:57:13;;;;;;;;;;;;;;;;;;5094984;28;970;-67
2021/04/08 17:59:38;;;;;;;;;;;;;;;;;;5094703;28;868;-68
2021/04/08 18:02:04;;;;;;;;;;;;;;;;;;5094628;28;1314;-67
2021/04/08 18:04:29;;;;;;;;;;;;;;;;;;5094632;28;1886;-69
2021/04/08 18:06:55;;;;;;;;;;;;;;;;;;5093640;28;1316;-69
2021/04/08 18:09:21;;;;;;;;;;;;;;;;;;5095002;28;798;-69
2021/04/08 18:11:47;;;;;;;;;;;;;;;;;;5094853;28;1448;-69
2021/04/08 18:14:13;;;;;;;;;;;;;;;;;;5094424;28;867;-67
2021/04/08 18:16:38;;;;;;;;;;;;;;;;;;5094841;28;835;-68
2021/04/08 18:19:03;;;;;;;;;;;;;;;;;;5094994;28;859;-67
2021/04/08 18:21:30;;;;;;;;;;;;;;;;;;5094660;28;1353;-67
2021/04/08 18:23:56;;;;;;;;;;;;;;;;;;5093037;28;1976;-67
2021/04/08 18:26:21;;;;;;;;;;;;;;;;;;5094511;28;812;-69
2021/04/08 18:28:46;;;;;;;;;;;;;;;;;;5093681;28;1611;-67
2021/04/08 18:31:11;;;;;;;;;;;;;;;;;;5094893;28;1393;-67
2021/04/08 18:33:37;;;;;;;;;;;;;;;;;;5093205;28;1316;-67
2021/04/08 18:36:02;;;;;;;;;;;;;;;;;;5094391;28;903;-67
2021/04/08 18:38:28;;;;;;;;;;;;;;;;;;5093259;28;1179;-67
2021/04/08 18:40:53;;;;;;;;;;;;;;;;;;5094550;28;1455;-67
2021/04/08 18:43:19;;;;;;;;;;;;;;;;;;5094449;28;824;-67
2021/04/08 18:45:44;;;;;;;;;;;;;;;;;;5094334;28;1898;-67
2021/04/08 18:48:10;;;;;;;;;;;;;;;;;;5093086;28;1337;-67
2021/04/08 18:50:35;;;;;;;;;;;;;;;;;;5094359;28;1431;-67
2021/04/08 18:53:02;;;;;;;;;;;;;;;;;;5093112;28;1362;-67
2021/04/08 18:55:28;;;;;;;;;;;;;;;;;;5094269;28;907;-67
2021/04/08 18:57:54;;;;;;;;;;;;;;;;;;5093120;28;2385;-67
2021/04/08 19:00:20;;;;;;;;;;;;;;;;;;5094317;28;1372;-67
2021/04/08 19:02:47;;;;;;;;;;;;;;;;;;5092853;28;1697;-67
2021/04/08 19:05:12;;;;;;;;;;;;;;;;;;5094443;28;1894;-67
2021/04/08 19:07:38;;;;;;;;;;;;;;;;;;5094268;28;907;-67
2021/04/08 19:10:04;;;;;;;;;;;;;;;;;;5094158;28;1317;-68
2021/04/08 19:12:29;;;;;;;;;;;;;;;;;;5097300;28;823;-68
2021/04/08 19:14:54;;;;;;;;;;;;;;;;;;5096925;28;828;-68
2021/04/08 19:17:21;;;;;;;;;;;;;;;;;;5097909;28;950;-68
2021/04/08 19:19:47;;;;;;;;;;;;;;;;;;5096738;28;1477;-67
2021/04/08 19:22:12;;;;;;;;;;;;;;;;;;5097711;28;1463;-68
2021/04/08 19:24:37;;;;;;;;;;;;;;;;;;5096335;28;1975;-67
2021/04/08 19:27:02;;;;;;;;;;;;;;;;;;5097951;28;835;-68
2021/04/08 19:29:28;;;;;;;;;;;;;;;;;;5096717;28;1141;-68
2021/04/08 19:31:53;;;;;;;;;;;;;;;;;;5097669;28;1392;-69
2021/04/08 19:34:18;;;;;;;;;;;;;;;;;;5097582;28;872;-68
2021/04/08 19:36:44;;;;;;;;;;;;;;;;;;5097768;28;967;-68
2021/04/08 19:39:09;;;;;;;;;;;;;;;;;;5097540;28;915;-68
2021/04/08 19:41:34;;;;;;;;;;;;;;;;;;5096224;28;1380;-68
2021/04/08 19:43:59;;;;;;;;;;;;;;;;;;5097251;28;1965;-68
2021/04/08 19:46:25;;;;;;;;;;;;;;;;;;5097553;28;940;-69
2021/04/08 19:48:51;;;;;;;;;;;;;;;;;;5097405;28;862;-68
2021/04/08 19:51:16;;;;;;;;;;;;;;;;;;5097270;28;1428;-68
2021/04/08 19:53:41;;;;;;;;;;;;;;;;;;5096004;28;899;-69
2021/04/08 19:56:07;;;;;;;;;;;;;;;;;;5096043;28;1136;-69
2021/04/08 19:58:32;;;;;;;;;;;;;;;;;;5097341;28;875;-68
2021/04/08 20:01:03;;;;;;;;;;;;;;;;;;5096987;28;1432;-68
2021/04/08 20:03:29;;;;;;;;;;;;;;;;;;5095692;28;1516;-68
2021/04/08 20:05:54;;;;;;;;;;;;;;;;;;5097211;28;1955;-68
2021/04/08 20:08:20;;;;;;;;;;;;;;;;;;5097159;28;877;-68
2021/04/08 20:10:45;;;;;;;;;;;;;;;;;;5096680;28;1396;-68
2021/04/08 20:13:10;;;;;;;;;;;;;;;;;;5096712;28;1348;-68
2021/04/08 20:15:35;;;;;;;;;;;;;;;;;;5096743;28;813;-69
2021/04/08 20:18:01;;;;;;;;;;;;;;;;;;5096796;28;973;-68
2021/04/08 20:20:26;;;;;;;;;;;;;;;;;;5095861;28;1368;-68
2021/04/08 20:22:51;;;;;;;;;;;;;;;;;;5095392;28;2231;-68
2021/04/08 20:25:20;;;;;;;;;;;;;;;;;;5095216;28;1885;-68
2021/04/08 20:27:45;;;;;;;;;;;;;;;;;;5096561;28;836;-68
2021/04/08 20:30:11;;;;;;;;;;;;;;;;;;5096152;28;1297;-68
2021/04/08 20:32:37;;;;;;;;;;;;;;;;;;5096454;28;820;-68
2021/04/08 20:35:03;;;;;;;;;;;;;;;;;;5095263;28;1397;-68
2021/04/08 20:37:28;;;;;;;;;;;;;;;;;;5095153;28;801;-68
2021/04/08 20:39:54;;;;;;;;;;;;;;;;;;5096622;28;912;-69
2021/04/08 20:42:19;;;;;;;;;;;;;;;;;;5095323;28;1392;-68
2021/04/08 20:44:45;;;;;;;;;;;;;;;;;;5095906;28;1885;-68
2021/04/08 20:47:10;;;;;;;;;;;;;;;;;;5096559;28;813;-68
2021/04/08 20:49:35;;;;;;;;;;;;;;;;;;5095022;28;1355;-68
2021/04/08 20:52:01;;;;;;;;;;;;;;;;;;5094866;28;1448;-68
2021/04/08 20:54:26;;;;;;;;;;;;;;;;;;5096072;28;908;-68
2021/04/08 20:56:51;;;;;;;;;;;;;;;;;;5094618;28;1933;-68
2021/04/08 20:59:17;;;;;;;;;;;;;;;;;;5096164;28;806;-68
2021/04/08 21:01:42;;;;;;;;;;;;;;;;;;5096020;28;1337;-68
2021/04/08 21:04:07;;;;;;;;;;;;;;;;;;5095742;28;1889;-68
2021/04/08 21:06:33;;;;;;;;;;;;;;;;;;5095884;28;951;-68
2021/04/08 21:08:58;;;;;;;;;;;;;;;;;;5094620;28;1222;-68
2021/04/08 21:11:23;;;;;;;;;;;;;;;;;;5096017;28;1388;-69
2021/04/08 21:13:49;;;;;;;;;;;;;;;;;;5094529;28;1128;-67
2021/04/08 21:16:14;;;;;;;;;;;;;;;;;;5095712;28;874;-67
2021/04/08 21:18:39;;;;;;;;;;;;;;;;;;5095356;28;895;-67
2021/04/08 21:21:05;;;;;;;;;;;;;;;;;;5095824;28;1289;-68
2021/04/08 21:23:30;;;;;;;;;;;;;;;;;;5094525;28;1217;-68
2021/04/08 21:25:56;;;;;;;;;;;;;;;;;;5095514;28;1949;-68
2021/04/08 21:28:21;;;;;;;;;;;;;;;;;;5095451;28;875;-69
2021/04/08 21:30:46;;;;;;;;;;;;;;;;;;5093923;28;1476;-68
2021/04/08 21:33:15;;;;;;;;;;;;;;;;;;5093769;28;1204;-69
2021/04/08 21:35:44;;;;;;;;;;;;;;;;;;5095026;28;1249;-68
2021/04/08 21:38:10;;;;;;;;;;;;;;;;;;5095493;28;796;-69
2021/04/08 21:40:35;;;;;;;;;;;;;;;;;;5093843;28;1320;-68
2021/04/08 21:43:10;;;;;;;;;;;;;;;;;;5094159;28;809;-68
2021/04/08 21:45:36;;;;;;;;;;;;;;;;;;5095107;28;1951;-69
2021/04/08 21:48:01;;;;;;;;;;;;;;;;;;5095242;28;891;-68
2021/04/08 21:50:27;;;;;;;;;;;;;;;;;;5094104;28;1440;-69
2021/04/08 21:52:55;;;;;;;;;;;;;;;;;;5095100;28;879;-68
2021/04/08 21:55:21;;;;;;;;;;;;;;;;;;5094716;28;895;-68
2021/04/08 21:57:47;;;;;;;;;;;;;;;;;;5093778;28;2202;-69
2021/04/08 22:00:18;;;;;;;;;;;;;;;;;;5095031;28;1456;-68
2021/04/08 22:02:43;;;;;;;;;;;;;;;;;;5093705;28;816;-68
2021/04/08 22:05:09;;;;;;;;;;;;;;;;;;5092717;28;1890;-68
2021/04/08 22:07:34;;;;;;;;;;;;;;;;;;5094444;28;1047;-68
2021/04/08 22:09:59;;;;;;;;;;;;;;;;;;5094235;28;879;-68
2021/04/08 22:12:24;;;;;;;;;;;;;;;;;;5093094;28;1589;-68
2021/04/08 22:14:50;;;;;;;;;;;;;;;;;;5094030;28;873;-68
2021/04/08 22:17:15;;;;;;;;;;;;;;;;;;5094066;28;1164;-68
2021/04/08 22:19:40;;;;;;;;;;;;;;;;;;5092874;28;1285;-68
2021/04/08 22:22:05;;;;;;;;;;;;;;;;;;5093018;28;1396;-68
2021/04/08 22:24:31;;;;;;;;;;;;;;;;;;5093478;28;1906;-68
2021/04/08 22:26:56;;;;;;;;;;;;;;;;;;5094267;28;871;-68
2021/04/08 22:29:23;;;;;;;;;;;;;;;;;;5094180;28;878;-68
2021/04/08 22:31:48;;;;;;;;;;;;;;;;;;5092581;28;1423;-68
2021/04/08 22:34:14;;;;;;;;;;;;;;;;;;5092887;28;1489;-68
2021/04/08 22:36:42;;;;;;;;;;;;;;;;;;5092524;28;1202;-68
2021/04/08 22:39:07;;;;;;;;;;;;;;;;;;5092655;28;1610;-68
2021/04/08 22:41:32;;;;;;;;;;;;;;;;;;5092922;28;1404;-68
2021/04/08 22:43:58;;;;;;;;;;;;;;;;;;5093706;28;1894;-68
2021/04/08 22:46:23;;;;;;;;;;;;;;;;;;5095440;28;871;-68
2021/04/08 22:48:49;;;;;;;;;;;;;;;;;;5098038;28;840;-68
2021/04/08 22:51:14;;;;;;;;;;;;;;;;;;5096665;28;1552;-68
2021/04/08 22:53:43;;;;;;;;;;;;;;;;;;5097816;28;886;-68
2021/04/08 22:56:08;;;;;;;;;;;;;;;;;;5096660;28;1272;-68
2021/04/08 22:58:35;;;;;;;;;;;;;;;;;;5097928;28;807;-68
